SBBU Informações do Aeroporto

Informações da Pista
Pista 14 Comprimento 4925 ft Largura 115 ft
Elevação 0 ft Limite 0 ft Heading 0
Pista 32 Comprimento 4925 ft Largura 115 ft
Elevação 0 ft Limite 0 ft Heading 0
Frequências do Aeroporto
Tipo AFIS Nome RDO Frequência 121.3 MHZ
Tipo APP Nome APP Frequência 121.3 MHZ
Tipo ATIS Nome ATIS Frequência 127.875 MHZ
Navaids do Aeroporto
Tipo NDB Nome Bauru Frequência 380 KHZ
Informações meteorológicas do aeroporto e NOTAM
ADDS - METARS form results

(2004 UTC 24 March 2019)
Data provider http://aviationweather.gov/metar/data/
 
Forecast for: SBBU (BAURU , BR)
Text: TAF SBBU 241500Z 2418/2506 09006KT 9999 SCT040 TX33/2418Z TN22/2506Z
Forecast period: 1800 to 2100 UTC 24 March 2019
Forecast type: FROM: standard forecast or significant change
Winds: from the E (90 degrees) at 7 MPH (6 knots; 3.1 m/s)
Visibility: 6 or more miles 10+ km)
Ceiling: at least 12,000 feet AGL
Clouds: scattered clouds at 4000 feet AGL
Weather: no significant weather forecast for this period
Text: BECMG 2421/2423 12004KT CAVOK RMK PER
Forecast period: 2100 UTC 24 March 2019 to 0600 UTC 25 March 2019
Forecast type: BECOMING: Conditions expected to become as follows by 2300 UTC 24 March 2019
Winds: from the ESE (120 degrees) at 5 MPH (4 knots; 2.1 m/s)
Visibility: 6 or more miles 10+ km)
Ceiling: unknown
Clouds: missing
Weather: NSW  (no significant weather)